createdAt,value
2023-05-06T00:00:28.086Z,6.50
2023-05-06T00:02:56.647Z,7.47
2023-05-06T00:05:24.562Z,4.73
2023-05-06T00:07:52.183Z,4.53
2023-05-06T00:10:21.377Z,5.05
2023-05-06T00:12:49.055Z,3.83
2023-05-06T00:15:16.743Z,5.50
2023-05-06T00:17:45.953Z,5.40
2023-05-06T00:20:14.775Z,5.85
2023-05-06T00:22:42.642Z,4.28
2023-05-06T00:25:11.314Z,4.97
2023-05-06T00:27:39.687Z,4.53
2023-05-06T00:30:08.640Z,5.03
2023-05-06T00:32:36.336Z,4.88
2023-05-06T00:35:06.907Z,6.65
2023-05-06T00:37:34.598Z,6.63
2023-05-06T00:40:03.915Z,4.35
2023-05-06T00:42:31.667Z,4.73
2023-05-06T00:44:59.278Z,3.75
2023-05-06T00:47:27.275Z,4.38
2023-05-06T00:49:55.886Z,3.10
2023-05-06T00:52:24.873Z,4.40
2023-05-06T00:54:52.531Z,5.20
2023-05-06T00:57:20.396Z,4.47
2023-05-06T00:59:48.018Z,5.82
2023-05-06T01:02:16.710Z,4.88
2023-05-06T01:04:45.284Z,9.82
2023-05-06T01:07:23.732Z,5.20
2023-05-06T01:09:58.261Z,4.63
2023-05-06T01:12:31.875Z,4.20
2023-05-06T01:15:08.435Z,5.18
2023-05-06T01:17:40.476Z,5.15
2023-05-06T01:20:11.948Z,3.23
2023-05-06T01:22:40.403Z,4.63
2023-05-06T01:25:19.293Z,4.35
2023-05-06T01:27:47.047Z,3.65
2023-05-06T01:30:17.165Z,3.40
2023-05-06T01:32:54.167Z,3.13
2023-05-06T01:35:28.084Z,5.80
2023-05-06T01:38:07.447Z,5.00
2023-05-06T01:40:37.212Z,4.88
2023-05-06T01:43:06.847Z,4.70
2023-05-06T01:45:37.731Z,6.57
2023-05-06T01:48:06.750Z,6.78
2023-05-06T01:50:35.795Z,6.05
2023-05-06T01:53:04.696Z,5.28
2023-05-06T01:55:32.341Z,5.78
2023-05-06T01:58:01.313Z,4.30
2023-05-06T02:00:29.114Z,5.07
2023-05-06T02:02:56.953Z,5.28
2023-05-06T02:05:24.874Z,5.40
2023-05-06T02:07:52.631Z,5.13
2023-05-06T02:10:20.465Z,5.67
2023-05-06T02:12:48.201Z,5.45
2023-05-06T02:15:17.359Z,5.28
2023-05-06T02:17:45.174Z,4.18
2023-05-06T02:20:12.955Z,5.45
2023-05-06T02:22:40.701Z,5.17
2023-05-06T02:25:09.829Z,5.07
2023-05-06T02:27:38.109Z,4.85
2023-05-06T02:30:06.840Z,5.32
2023-05-06T02:32:36.302Z,5.93
2023-05-06T02:35:04.343Z,6.13
2023-05-06T02:37:32.309Z,5.88
2023-05-06T02:40:00.200Z,4.95
2023-05-06T02:42:28.133Z,5.97
2023-05-06T02:44:55.776Z,5.72
2023-05-06T02:47:23.659Z,5.70
2023-05-06T02:49:52.599Z,5.68
2023-05-06T02:52:20.218Z,7.05
2023-05-06T02:54:48.022Z,5.20
2023-05-06T02:57:16.008Z,6.97
2023-05-06T02:59:43.649Z,6.90
2023-05-06T03:02:11.297Z,7.97
2023-05-06T03:04:39.143Z,7.30
2023-05-06T03:07:08.447Z,6.28
2023-05-06T03:09:36.029Z,9.82
2023-05-06T03:12:04.638Z,7.70
2023-05-06T03:14:32.500Z,7.28
2023-05-06T03:17:00.388Z,8.48
2023-05-06T03:19:28.285Z,9.13
2023-05-06T03:21:56.480Z,7.85
2023-05-06T03:24:25.587Z,7.60
2023-05-06T03:26:53.327Z,9.00
2023-05-06T03:29:20.951Z,8.65
2023-05-06T03:31:50.606Z,8.68
2023-05-06T03:34:19.384Z,10.13
2023-05-06T03:36:47.184Z,8.63
2023-05-06T03:39:14.899Z,10.35
2023-05-06T03:41:44.041Z,10.63
2023-05-06T03:44:11.639Z,10.82
2023-05-06T03:46:40.281Z,9.90
2023-05-06T03:49:08.416Z,10.20
2023-05-06T03:51:36.444Z,10.43
2023-05-06T03:54:04.873Z,12.15
2023-05-06T03:56:32.663Z,11.57
2023-05-06T03:59:01.876Z,10.88
2023-05-06T04:01:29.902Z,15.00
2023-05-06T04:03:57.550Z,10.40
2023-05-06T04:06:26.143Z,12.40
2023-05-06T04:08:54.250Z,10.48
2023-05-06T04:11:21.898Z,11.68
2023-05-06T04:13:49.526Z,11.47
2023-05-06T04:16:18.689Z,13.98
2023-05-06T04:18:47.751Z,23.10
2023-05-06T04:21:15.383Z,13.85
2023-05-06T04:23:43.151Z,15.05
2023-05-06T04:26:10.896Z,12.20
2023-05-06T04:28:38.499Z,12.00
2023-05-06T04:31:08.750Z,18.52
2023-05-06T04:33:38.273Z,15.68
2023-05-06T04:36:06.933Z,19.40
2023-05-06T04:38:35.706Z,15.83
2023-05-06T04:41:04.158Z,14.27
2023-05-06T04:43:32.841Z,12.90
2023-05-06T04:46:00.548Z,11.80
2023-05-06T04:48:29.223Z,15.77
2023-05-06T04:50:58.297Z,12.47
2023-05-06T04:53:25.925Z,14.70
2023-05-06T04:55:53.758Z,13.07
2023-05-06T04:58:21.522Z,13.45
2023-05-06T05:00:49.210Z,14.32
2023-05-06T05:03:17.290Z,16.87
2023-05-06T05:05:45.058Z,15.30
2023-05-06T05:08:14.029Z,13.15
2023-05-06T05:10:42.667Z,13.15
2023-05-06T05:13:10.277Z,14.70
2023-05-06T05:15:38.518Z,21.47
2023-05-06T05:18:06.633Z,22.25
2023-05-06T05:20:34.530Z,20.77
2023-05-06T05:23:02.447Z,18.67
2023-05-06T05:25:31.387Z,16.83
2023-05-06T05:27:59.404Z,15.53
2023-05-06T05:30:27.015Z,15.77
2023-05-06T05:32:54.711Z,12.63
2023-05-06T05:35:22.523Z,13.20
2023-05-06T05:37:50.651Z,12.27
2023-05-06T05:40:18.342Z,13.37
2023-05-06T05:42:47.470Z,10.35
2023-05-06T05:45:15.073Z,9.40
2023-05-06T05:47:42.946Z,8.75
2023-05-06T05:50:10.912Z,10.02
2023-05-06T05:52:38.760Z,10.33
2023-05-06T05:55:07.877Z,9.18
2023-05-06T05:57:35.765Z,7.88
2023-05-06T06:00:10.590Z,9.07
2023-05-06T06:02:39.923Z,33.95
2023-05-06T06:05:11.578Z,64.43
2023-05-06T06:07:39.278Z,42.55
2023-05-06T06:10:08.056Z,24.38
2023-05-06T06:12:35.926Z,20.08
2023-05-06T06:15:03.965Z,15.55
2023-05-06T06:17:33.016Z,15.40
2023-05-06T06:20:01.430Z,12.77
2023-05-06T06:22:29.011Z,11.20
2023-05-06T06:24:57.103Z,10.68
2023-05-06T06:27:25.190Z,11.27
2023-05-06T06:29:52.790Z,9.43
2023-05-06T06:32:20.884Z,8.20
2023-05-06T06:34:49.988Z,9.45
2023-05-06T06:37:17.622Z,8.70
2023-05-06T06:39:45.376Z,9.73
2023-05-06T06:42:12.932Z,10.33
2023-05-06T06:44:40.851Z,9.40
2023-05-06T06:47:08.673Z,10.93
2023-05-06T06:49:36.393Z,11.90
2023-05-06T06:52:06.271Z,10.65
2023-05-06T06:54:33.927Z,10.97
2023-05-06T06:57:01.583Z,11.45
2023-05-06T06:59:29.442Z,11.07
2023-05-06T07:01:57.051Z,10.52
2023-05-06T07:04:25.884Z,9.38
2023-05-06T07:06:53.533Z,9.00
2023-05-06T07:09:22.889Z,8.60
2023-05-06T07:11:50.610Z,7.80
2023-05-06T07:14:18.233Z,7.53
2023-05-06T07:16:47.175Z,8.80
2023-05-06T07:19:15.731Z,7.60
2023-05-06T07:21:43.355Z,7.18
2023-05-06T07:24:11.448Z,8.40
2023-05-06T07:26:40.848Z,14.57
2023-05-06T07:29:08.734Z,8.45
2023-05-06T07:31:36.591Z,8.53
2023-05-06T07:34:04.278Z,4.97
2023-05-06T07:36:36.113Z,5.18
2023-05-06T07:39:05.075Z,5.90
2023-05-06T07:41:32.730Z,6.00
2023-05-06T07:44:02.171Z,6.53
2023-05-06T07:46:30.001Z,4.60
2023-05-06T07:48:57.872Z,4.38
2023-05-06T07:51:25.522Z,3.55
2023-05-06T07:53:53.095Z,6.38
2023-05-06T07:56:21.158Z,5.10
2023-05-06T07:58:49.439Z,4.90
2023-05-06T08:01:20.800Z,4.75
2023-05-06T08:03:51.471Z,6.28
2023-05-06T08:06:19.298Z,5.78
2023-05-06T08:08:47.411Z,7.23
2023-05-06T08:11:16.981Z,4.75
2023-05-06T08:13:46.098Z,6.18
2023-05-06T08:16:13.805Z,6.53
2023-05-06T08:18:43.028Z,4.65
2023-05-06T08:21:12.450Z,7.47
2023-05-06T08:23:40.038Z,7.13
2023-05-06T08:26:13.262Z,4.35
2023-05-06T08:28:40.934Z,4.55
2023-05-06T08:31:08.584Z,4.88
2023-05-06T08:33:39.337Z,5.77
2023-05-06T08:36:08.791Z,4.22
2023-05-06T08:38:38.782Z,3.05
2023-05-06T08:41:10.104Z,4.70
2023-05-06T08:43:42.742Z,4.53
2023-05-06T08:46:12.963Z,4.70
2023-05-06T08:48:44.141Z,3.80
2023-05-06T08:51:15.744Z,5.07
2023-05-06T08:53:47.377Z,4.82
2023-05-06T08:56:16.970Z,3.78
2023-05-06T08:58:47.205Z,3.53
2023-05-06T09:01:15.433Z,2.85
2023-05-06T09:03:44.252Z,3.08
2023-05-06T09:06:13.380Z,4.30
2023-05-06T09:08:41.134Z,3.05
2023-05-06T09:11:23.322Z,6.00
2023-05-06T09:13:51.572Z,2.28
2023-05-06T09:16:29.842Z,4.78
2023-05-06T09:18:57.915Z,5.20
2023-05-06T09:21:34.110Z,4.18
2023-05-06T09:24:02.797Z,3.37
2023-05-06T09:26:31.575Z,3.97
2023-05-06T09:29:00.046Z,2.78
2023-05-06T09:31:28.806Z,4.07
2023-05-06T09:33:58.168Z,2.80
2023-05-06T09:36:27.716Z,4.03
2023-05-06T09:38:57.047Z,2.55
2023-05-06T09:41:26.176Z,4.10
2023-05-06T09:43:54.551Z,2.40
2023-05-06T09:46:22.845Z,4.07
2023-05-06T09:48:52.529Z,4.17
2023-05-06T09:51:20.253Z,2.83
2023-05-06T09:53:48.710Z,2.88
2023-05-06T09:56:18.977Z,2.17
2023-05-06T09:58:47.426Z,2.00
2023-05-06T10:01:25.105Z,6.30
2023-05-06T10:04:03.006Z,2.28
2023-05-06T10:06:30.818Z,2.17
2023-05-06T10:09:00.881Z,3.63
2023-05-06T10:11:32.157Z,5.10
2023-05-06T10:14:00.911Z,3.80
2023-05-06T10:16:29.296Z,3.38
2023-05-06T10:18:57.240Z,6.68
2023-05-06T10:21:28.917Z,3.33
2023-05-06T10:24:07.200Z,5.30
2023-05-06T10:26:38.271Z,3.00
2023-05-06T10:29:11.033Z,3.70
2023-05-06T10:31:45.306Z,2.30
2023-05-06T10:34:13.769Z,2.63
2023-05-06T10:36:44.409Z,4.40
2023-05-06T10:39:14.410Z,2.90
2023-05-06T10:41:43.821Z,3.63
2023-05-06T10:44:12.813Z,3.28
2023-05-06T10:46:59.850Z,2.20
2023-05-06T10:49:27.976Z,2.22
2023-05-06T10:52:13.738Z,4.03
2023-05-06T10:54:50.354Z,1.75
2023-05-06T10:57:22.094Z,3.17
2023-05-06T10:59:50.111Z,2.72
2023-05-06T11:02:19.896Z,3.65
2023-05-06T11:04:51.804Z,2.50
2023-05-06T11:07:23.943Z,2.92
2023-05-06T11:09:55.908Z,2.13
2023-05-06T11:12:46.293Z,2.20
2023-05-06T11:15:21.350Z,2.17
2023-05-06T11:17:49.264Z,2.63
2023-05-06T11:20:21.052Z,4.65
2023-05-06T11:22:49.100Z,3.15
2023-05-06T11:25:40.191Z,2.20
2023-05-06T11:28:10.912Z,2.20
2023-05-06T11:30:41.496Z,3.03
2023-05-06T11:33:10.098Z,2.22
2023-05-06T11:35:38.277Z,3.22
2023-05-06T11:38:06.364Z,4.20
2023-05-06T11:40:34.442Z,3.13
2023-05-06T11:43:21.536Z,2.43
2023-05-06T11:45:50.833Z,2.67
2023-05-06T11:48:19.295Z,2.28
2023-05-06T11:50:48.272Z,2.10
2023-05-06T11:53:18.924Z,2.95
2023-05-06T11:55:47.194Z,1.43
2023-05-06T11:58:16.740Z,4.28
2023-05-06T12:00:51.753Z,3.67
2023-05-06T12:03:20.354Z,1.73
2023-05-06T12:05:48.748Z,2.58
2023-05-06T12:08:26.566Z,2.20
2023-05-06T12:10:57.263Z,2.38
2023-05-06T12:13:25.126Z,1.98
2023-05-06T12:15:55.438Z,3.20
2023-05-06T12:18:23.771Z,1.95
2023-05-06T12:20:51.607Z,2.07
2023-05-06T12:23:20.071Z,2.10
2023-05-06T12:26:01.114Z,3.63
2023-05-06T12:28:29.567Z,1.85
2023-05-06T12:30:58.847Z,2.58
2023-05-06T12:33:28.054Z,3.80
2023-05-06T12:36:08.015Z,2.47
2023-05-06T12:38:36.117Z,2.13
2023-05-06T12:41:04.395Z,2.15
2023-05-06T12:43:33.141Z,4.85
2023-05-06T12:46:06.340Z,2.83
2023-05-06T12:48:34.541Z,3.70
2023-05-06T12:51:02.510Z,3.40
2023-05-06T12:53:34.670Z,2.10
2023-05-06T12:56:02.805Z,3.00
2023-05-06T12:58:30.840Z,3.23
2023-05-06T13:00:58.864Z,3.03
2023-05-06T13:03:27.952Z,1.80
2023-05-06T13:05:55.847Z,3.00
2023-05-06T13:08:23.573Z,5.15
2023-05-06T13:10:51.170Z,2.33
2023-05-06T13:13:19.212Z,2.72
2023-05-06T13:15:46.933Z,2.25
2023-05-06T13:18:14.568Z,1.70
2023-05-06T13:20:43.667Z,1.70
2023-05-06T13:23:12.830Z,2.43
2023-05-06T13:25:55.959Z,2.10
2023-05-06T13:28:28.540Z,3.25
2023-05-06T13:30:56.510Z,1.98
2023-05-06T13:33:24.149Z,2.17
2023-05-06T13:35:53.489Z,2.30
2023-05-06T13:38:21.714Z,2.55
2023-05-06T13:40:52.128Z,2.67
2023-05-06T13:43:20.004Z,2.63
2023-05-06T13:45:47.894Z,2.03
2023-05-06T13:48:15.955Z,1.37
2023-05-06T13:50:43.768Z,2.00
2023-05-06T13:53:12.854Z,2.97
2023-05-06T13:55:41.696Z,2.95
2023-05-06T13:58:09.586Z,1.35
2023-05-06T14:00:37.496Z,2.77
2023-05-06T14:03:05.548Z,2.13
2023-05-06T14:05:33.720Z,3.42
2023-05-06T14:08:01.334Z,2.97
2023-05-06T14:10:30.524Z,1.27
2023-05-06T14:12:58.209Z,1.73
2023-05-06T14:15:26.242Z,1.70
2023-05-06T14:17:54.252Z,1.00
2023-05-06T14:20:21.971Z,1.75
2023-05-06T14:22:49.817Z,1.50
2023-05-06T14:25:17.470Z,1.83
2023-05-06T14:27:46.568Z,3.17
2023-05-06T14:30:14.929Z,1.20
2023-05-06T14:32:42.608Z,2.60
2023-05-06T14:35:12.843Z,1.80
2023-05-06T14:37:41.014Z,1.73
2023-05-06T14:40:10.089Z,2.83
2023-05-06T14:42:38.577Z,1.35
2023-05-06T14:45:09.658Z,2.65
2023-05-06T14:47:37.582Z,2.25
2023-05-06T14:50:05.947Z,1.90
2023-05-06T14:52:34.150Z,1.50
2023-05-06T14:55:02.041Z,1.75
2023-05-06T14:57:29.659Z,2.25
2023-05-06T14:59:57.678Z,1.42
2023-05-06T15:02:26.667Z,1.60
2023-05-06T15:04:54.399Z,1.33
2023-05-06T15:07:22.251Z,1.83
2023-05-06T15:09:50.051Z,1.30
2023-05-06T15:12:17.740Z,1.33
2023-05-06T15:14:45.367Z,1.53
2023-05-06T15:17:14.230Z,1.38
2023-05-06T15:19:43.224Z,1.92
2023-05-06T15:22:10.817Z,1.08
2023-05-06T15:24:38.851Z,0.85
2023-05-06T15:27:07.329Z,2.10
2023-05-06T15:29:35.122Z,1.02
2023-05-06T15:32:02.790Z,1.45
2023-05-06T15:34:30.833Z,1.10
2023-05-06T15:37:01.765Z,2.03
2023-05-06T15:39:29.432Z,4.80
2023-05-06T15:41:59.319Z,2.47
2023-05-06T15:44:27.760Z,2.58
2023-05-06T15:46:55.399Z,2.35
2023-05-06T15:49:45.499Z,0.77
2023-05-06T15:52:12.319Z,1.97
2023-05-06T15:54:41.221Z,2.15
2023-05-06T15:57:09.644Z,1.75
2023-05-06T15:59:37.279Z,1.05
2023-05-06T16:04:36.284Z,1.90
2023-05-06T16:07:04.112Z,1.27
2023-05-06T16:09:33.259Z,0.93
2023-05-06T16:12:01.350Z,1.52
2023-05-06T16:14:28.987Z,0.95
2023-05-06T16:16:57.237Z,1.33
2023-05-06T16:19:25.014Z,1.48
2023-05-06T16:21:53.001Z,3.15
2023-05-06T16:24:20.613Z,1.15
2023-05-06T16:26:49.790Z,2.17
2023-05-06T16:29:20.927Z,1.80
2023-05-06T16:31:49.437Z,2.58
2023-05-06T16:34:17.128Z,1.27
2023-05-06T16:36:45.853Z,1.35
2023-05-06T16:39:13.623Z,1.80
2023-05-06T16:41:41.327Z,1.10
2023-05-06T16:44:10.685Z,2.15
2023-05-06T16:46:38.468Z,1.25
2023-05-06T16:49:06.118Z,1.42
2023-05-06T16:51:34.127Z,2.00
2023-05-06T16:54:01.886Z,1.77
2023-05-06T16:56:43.995Z,1.23
2023-05-06T16:59:21.653Z,1.80
2023-05-06T17:01:49.971Z,1.65
2023-05-06T17:04:17.681Z,1.55
2023-05-06T17:06:45.622Z,5.03
2023-05-06T17:09:13.361Z,17.33
2023-05-06T17:11:41.006Z,3.85
2023-05-06T17:14:08.819Z,4.70
2023-05-06T17:16:38.076Z,2.80
2023-05-06T17:19:05.780Z,3.13
2023-05-06T17:21:33.585Z,1.38
2023-05-06T17:24:01.357Z,1.45
2023-05-06T17:26:28.978Z,1.90
2023-05-06T17:28:56.610Z,3.03
2023-05-06T17:31:24.542Z,2.10
2023-05-06T17:33:53.600Z,1.25
2023-05-06T17:36:21.854Z,1.83
2023-05-06T17:38:49.817Z,2.33
2023-05-06T17:41:17.580Z,2.53
2023-05-06T17:43:47.388Z,1.93
2023-05-06T17:46:16.331Z,1.70
2023-05-06T17:48:45.527Z,3.08
2023-05-06T17:51:14.535Z,1.25
2023-05-06T17:53:42.680Z,2.50
2023-05-06T17:56:10.343Z,3.67
2023-05-06T17:58:38.148Z,1.80
2023-05-06T18:01:07.714Z,2.30
2023-05-06T18:03:35.590Z,2.90
2023-05-06T18:06:03.432Z,4.47
2023-05-06T18:08:32.903Z,5.37
2023-05-06T18:11:00.533Z,6.90
2023-05-06T18:13:28.169Z,4.53
2023-05-06T18:15:56.002Z,3.20
2023-05-06T18:18:24.073Z,2.25
2023-05-06T18:20:51.802Z,2.43
2023-05-06T18:23:19.798Z,2.45
2023-05-06T18:25:49.591Z,1.90
2023-05-06T18:28:17.570Z,1.98
2023-05-06T18:30:45.462Z,2.08
2023-05-06T18:33:13.424Z,2.87
2023-05-06T18:35:41.055Z,1.73
2023-05-06T18:38:09.878Z,1.70
2023-05-06T18:40:38.401Z,2.47
2023-05-06T18:43:08.109Z,2.65
2023-05-06T18:45:36.156Z,2.27
2023-05-06T18:48:04.220Z,3.80
2023-05-06T18:50:32.013Z,4.72
2023-05-06T18:52:59.694Z,4.72
2023-05-06T18:55:27.941Z,4.60
2023-05-06T18:57:56.066Z,4.03
2023-05-06T19:00:25.728Z,4.28
2023-05-06T19:02:53.853Z,4.45
2023-05-06T19:05:21.602Z,4.50
2023-05-06T19:07:49.570Z,2.92
2023-05-06T19:10:17.736Z,3.20
2023-05-06T19:12:45.542Z,4.45
2023-05-06T19:15:14.034Z,4.00
2023-05-06T19:17:43.218Z,5.93
2023-05-06T19:20:11.504Z,7.40
2023-05-06T19:22:39.194Z,6.53
2023-05-06T19:25:08.033Z,6.47
2023-05-06T19:27:36.148Z,5.63
2023-05-06T19:30:04.145Z,7.07
2023-05-06T19:32:32.991Z,6.28
2023-05-06T19:35:08.141Z,5.60
2023-05-06T19:37:36.596Z,5.60
2023-05-06T19:40:04.951Z,5.65
2023-05-06T19:42:33.018Z,5.35
2023-05-06T19:45:01.170Z,5.38
2023-05-06T19:47:30.600Z,5.73
2023-05-06T19:49:58.455Z,6.15
2023-05-06T19:52:30.466Z,7.35
2023-05-06T19:54:58.377Z,7.78
2023-05-06T19:57:26.922Z,7.80
2023-05-06T19:59:55.256Z,8.80
2023-05-06T20:02:23.636Z,10.27
2023-05-06T20:04:51.591Z,8.65
2023-05-06T20:07:20.968Z,8.18
2023-05-06T20:09:55.551Z,11.38
2023-05-06T20:12:23.697Z,10.10
2023-05-06T20:14:51.812Z,9.77
2023-05-06T20:17:19.659Z,8.23
2023-05-06T20:19:47.948Z,10.52
2023-05-06T20:22:17.442Z,7.07
2023-05-06T20:24:45.999Z,6.37
2023-05-06T20:27:15.219Z,6.90
2023-05-06T20:29:43.214Z,8.13
2023-05-06T20:32:11.281Z,7.95
2023-05-06T20:34:39.667Z,11.00
2023-05-06T20:37:07.580Z,9.83
2023-05-06T20:39:35.778Z,8.32
2023-05-06T20:42:03.628Z,9.80
2023-05-06T20:44:33.291Z,7.75
2023-05-06T20:47:02.352Z,5.65
2023-05-06T20:49:30.296Z,6.23
2023-05-06T20:51:58.529Z,4.20
2023-05-06T20:54:26.678Z,5.57
2023-05-06T20:56:54.580Z,6.63
2023-05-06T20:59:22.747Z,5.28
2023-05-06T21:01:51.904Z,5.43
2023-05-06T21:04:19.696Z,8.05
2023-05-06T21:06:47.332Z,9.27
2023-05-06T21:09:15.089Z,6.22
2023-05-06T21:11:42.786Z,4.93
2023-05-06T21:14:10.510Z,4.37
2023-05-06T21:16:40.720Z,5.00
2023-05-06T21:19:09.928Z,4.93
2023-05-06T21:21:38.030Z,6.05
2023-05-06T21:24:06.657Z,4.28
2023-05-06T21:26:34.399Z,5.33
2023-05-06T21:29:02.472Z,5.63
2023-05-06T21:31:30.602Z,4.20
2023-05-06T21:33:59.690Z,4.25
2023-05-06T21:36:29.518Z,4.45
2023-05-06T21:39:02.082Z,4.23
2023-05-06T21:41:29.708Z,4.32
2023-05-06T21:43:57.396Z,4.93
2023-05-06T21:46:25.332Z,3.42
2023-05-06T21:48:52.986Z,3.38
2023-05-06T21:51:20.658Z,21.23
2023-05-06T21:53:51.868Z,21.13
2023-05-06T21:56:19.464Z,13.55
2023-05-06T21:58:47.076Z,11.32
2023-05-06T22:01:14.913Z,8.32
2023-05-06T22:03:42.945Z,4.90
2023-05-06T22:06:10.766Z,5.70
2023-05-06T22:08:38.537Z,5.88
2023-05-06T22:11:07.575Z,4.25
2023-05-06T22:13:35.604Z,4.25
2023-05-06T22:16:04.143Z,5.47
2023-05-06T22:18:32.484Z,3.97
2023-05-06T22:21:00.738Z,6.05
2023-05-06T22:23:29.240Z,5.28
2023-05-06T22:25:58.513Z,3.65
2023-05-06T22:28:28.552Z,3.63
2023-05-06T22:30:56.195Z,3.22
2023-05-06T22:33:24.009Z,4.05
2023-05-06T22:35:51.622Z,3.60
2023-05-06T22:38:19.579Z,3.97
2023-05-06T22:40:47.196Z,5.07
2023-05-06T22:43:15.037Z,4.35
2023-05-06T22:45:44.096Z,4.38
2023-05-06T22:48:12.027Z,5.00
2023-05-06T22:50:39.990Z,4.78
2023-05-06T22:53:15.119Z,3.77
2023-05-06T22:55:43.610Z,4.03
2023-05-06T22:58:11.252Z,5.38
2023-05-06T23:00:39.080Z,6.13
2023-05-06T23:03:08.149Z,4.50
2023-05-06T23:05:35.857Z,4.70
2023-05-06T23:08:04.037Z,3.63
2023-05-06T23:10:31.994Z,5.50
2023-05-06T23:13:01.217Z,4.68
2023-05-06T23:15:29.358Z,3.63
2023-05-06T23:17:57.055Z,4.27
2023-05-06T23:20:26.138Z,4.22
2023-05-06T23:22:54.077Z,4.38
2023-05-06T23:25:21.697Z,5.50
2023-05-06T23:27:49.757Z,2.97
2023-05-06T23:30:17.474Z,2.83
2023-05-06T23:32:45.314Z,5.20
2023-05-06T23:35:13.576Z,4.35
2023-05-06T23:37:43.303Z,4.25
2023-05-06T23:40:13.369Z,5.82
2023-05-06T23:42:41.704Z,5.27
2023-05-06T23:45:11.831Z,4.35
2023-05-06T23:47:39.669Z,7.78
2023-05-06T23:50:08.051Z,4.07
2023-05-06T23:52:38.295Z,4.97
2023-05-06T23:55:08.266Z,6.47
2023-05-06T23:57:35.913Z,4.20
